Latest Weather Observations for Mount Read

IDT60801

Issued at 9:01 pm EDT Sunday 14 February 2016 (issued every 30 minutes, with the page automatically refreshed every 10 minutes)

About weather observations | Map of weather stations | Latest weather observations for TAS | Other Formats
Station Details ID: 097085 Name: MOUNT READ Lat: -41.84 Lon: 145.54 Height: 1119.5 m
Data from the previous 72 hours. | See also: Recent months at Mount Read
Date/Time
EDT
Temp
°C
App
Temp
°C
Dew
Point
Rel
Hum
%
Delta-T
°C
Wind Press
QNH
hPa
Press
MSL
hPa
Rain
since 9 am
mm
Dir
 
Spd
km/h
Gust
km/h
Spd
kts
Gust
kts
14/09:00pm 4.3 -3.0 4.3 100 0.0 WSW 32 43 17 23 1009.4 1007.3 8.2
14/08:30pm 4.4 -3.9 4.4 100 0.0 WSW 37 57 20 31 1009.1 1007.0 8.2
14/08:29pm 4.4 -3.9 4.4 100 0.0 WSW 37 57 20 31 1009.1 1007.0 8.2
14/08:00pm 4.3 -4.0 4.2 99 0.0 WSW 37 48 20 26 1008.8 1006.6 8.2
14/07:30pm 4.8 -3.4 4.8 100 0.0 WSW 37 48 20 26 1008.6 1006.5 8.0
14/07:07pm 4.8 -2.7 4.7 99 0.0 WNW 33 57 18 31 1008.2 1006.1 7.6
14/07:00pm 4.8 -2.1 4.7 99 0.0 W 30 43 16 23 1008.4 1006.3 7.6
14/06:30pm 5.0 -2.4 5.0 100 0.0 WSW 33 44 18 24 1008.2 1006.1 7.6
14/06:00pm 4.8 -2.7 4.7 99 0.0 WSW 33 46 18 25 1008.1 1006.0 7.4
14/05:30pm 5.3 -2.8 5.2 99 0.0 WSW 37 50 20 27 1007.9 1005.7 6.8
14/05:00pm 5.7 -3.7 5.6 99 0.0 WSW 44 59 24 32 1007.6 1005.5 6.8
14/04:45pm 6.0 -1.0 5.9 99 0.0 W 32 52 17 28 1007.5 1005.4 6.8
14/04:30pm 6.8 -1.4 6.7 99 0.0 WSW 39 52 21 28 1007.4 1005.3 6.6
14/04:02pm 7.2 -0.5 7.1 99 0.0 W 37 56 20 30 1007.5 1005.4 6.6
14/04:00pm 7.1 -1.0 7.0 99 0.0 W 39 56 21 30 1007.4 1005.3 6.6
14/03:33pm 6.6 -2.9 6.6 100 0.0 WSW 46 67 25 36 1007.1 1004.9 6.6
14/03:30pm 6.0 -4.0 6.0 100 0.0 WSW 48 67 26 36 1007.0 1004.8 6.6
14/03:00pm 6.2 -1.7 6.2 100 0.0 W 37 57 20 31 1007.0 1004.8 6.6
14/02:30pm 6.2 -3.8 6.2 100 0.0 W 48 70 26 38 1006.2 1004.0 6.6
14/02:00pm 5.7 -5.5 5.7 100 0.0 WSW 54 74 29 40 1006.2 1004.0 6.6
14/01:30pm 6.5 -4.2 6.5 100 0.0 W 52 70 28 38 1005.6 1003.5 5.2
14/01:17pm 6.7 -1.5 6.7 100 0.0 WNW 39 83 21 45 1005.2 1003.0 5.0
14/01:00pm 6.6 -0.8 6.6 100 0.0 WNW 35 76 19 41 1005.4 1003.2 3.2
14/12:51pm 6.6 -2.9 6.6 100 0.0 WNW 46 76 25 41 1005.3 1003.1 3.2
14/12:50pm 6.9 -2.6 6.9 100 0.0 WNW 46 76 25 41 1005.7 1003.6 3.2
14/12:49pm 6.9 -2.6 6.9 100 0.0 WNW 46 76 25 41 1005.6 1003.5 3.2
14/12:42pm 6.8 -3.1 6.8 100 0.0 WNW 48 80 26 43 1005.4 1003.2 3.2
14/12:30pm 6.9 -0.5 6.9 100 0.0 WNW 35 76 19 41 1005.6 1003.5 3.2
14/12:00pm 6.7 -2.4 6.7 100 0.0 WNW 44 67 24 36 1006.0 1003.8 2.8
14/11:30am 6.6 -1.6 6.6 100 0.0 W 39 69 21 37 1005.4 1003.2 2.8
14/11:00am 6.6 1.6 6.6 100 0.0 NW 22 59 12 32 1005.6 1003.5 0.0
14/10:39am 6.5 -2.1 6.5 100 0.0 WNW 41 63 22 34 1005.3 1003.1 0.0
14/10:30am 6.5 -0.6 6.5 100 0.0 NW 33 57 18 31 1005.4 1003.2 0.0
14/10:04am 6.4 -0.7 6.4 100 0.0 WNW 33 63 18 34 1005.5 1003.3 0.0
14/10:00am 6.5 -0.4 6.5 100 0.0 NW 32 50 17 27 1005.7 1003.6 0.0
14/09:38am 6.5 0.4 6.5 100 0.0 WNW 28 48 15 26 1005.6 1003.5 0.0
14/09:30am 6.7 1.4 6.7 100 0.0 NW 24 44 13 24 1005.9 1003.7 0.0
14/09:00am 6.7 -1.5 6.7 100 0.0 WNW 39 61 21 33 1005.3 1003.1 12.8
14/08:33am 6.5 0.4 6.5 100 0.0 WNW 28 48 15 26 1005.4 1003.2 11.4
14/08:30am 6.5 0.0 6.5 100 0.0 WNW 30 43 16 23 1005.3 1003.1 11.2
14/08:00am 6.5 -1.3 6.5 100 0.0 WNW 37 59 20 32 1005.2 1003.0 10.8
14/07:35am 6.2 -0.8 6.2 100 0.0 WNW 32 50 17 27 1005.1 1002.9 10.6
14/07:30am 6.0 -1.2 6.0 100 0.0 WNW 33 48 18 26 1005.1 1002.9 10.6
14/07:12am 6.4 1.0 6.4 100 0.0 WNW 24 54 13 29 1004.8 1002.7 10.6
14/07:00am 6.5 2.1 6.5 100 0.0 NW 19 37 10 20 1004.4 1002.2 9.4
14/06:48am 6.5 0.4 6.5 100 0.0 NW 28 52 15 28 1004.4 1002.2 9.0
14/06:30am 6.3 0.9 6.3 100 0.0 NW 24 44 13 24 1004.3 1002.1 8.4
14/06:00am 6.3 0.1 6.3 100 0.0 NW 28 44 15 24 1004.3 1002.1 8.2
14/05:30am 6.5 -0.6 6.5 100 0.0 WNW 33 56 18 30 1004.0 1001.7 8.2
14/05:00am 6.3 -0.2 6.3 100 0.0 NW 30 52 16 28 1004.1 1001.9 8.0
14/04:30am 6.4 -0.7 6.4 100 0.0 WNW 33 57 18 31 1004.3 1002.1 8.0
14/04:01am 6.1 -1.8 6.1 100 0.0 WNW 37 57 20 31 1004.5 1002.3 8.0
14/04:00am 6.2 -1.3 6.2 100 0.0 WNW 35 54 19 29 1004.5 1002.3 8.0
14/03:50am 6.0 -2.3 6.0 100 0.0 WNW 39 57 21 31 1004.6 1002.4 8.0
14/03:30am 6.2 -2.5 6.2 100 0.0 WNW 41 54 22 29 1004.5 1002.3 8.0
14/03:00am 5.7 -2.3 5.7 100 0.0 WNW 37 57 20 31 1004.8 1002.7 8.0
14/02:40am 6.3 -0.2 6.3 100 0.0 WNW 30 54 16 29 1004.8 1002.7 5.6
14/02:30am 6.5 -0.4 6.5 100 0.0 WNW 32 46 17 25 1004.7 1002.5 5.0
14/02:19am 6.3 0.1 6.3 100 0.0 WNW 28 48 15 26 1004.6 1002.4 5.0
14/02:00am 6.2 2.1 6.2 100 0.0 NW 17 28 9 15 1005.1 1002.9 4.4
14/01:30am 6.1 1.6 6.1 100 0.0 NNW 19 28 10 15 1005.2 1003.0 3.4
14/01:00am 6.0 1.9 6.0 100 0.0 NNW 17 28 9 15 1005.4 1003.2 3.4
14/12:30am 6.1 1.6 6.1 100 0.0 NW 19 35 10 19 1005.7 1003.6 3.4
14/12:00am 5.3 0.1 5.3 100 0.0 WNW 22 32 12 17 1006.1 1003.9 3.4
 
Date/Time
EDT
Temp
°C
App
Temp
°C
Dew
Point
Rel
Hum
%
Delta-T
°C
Wind Press
QNH
hPa
Press
MSL
hPa
Rain
since 9 am
mm
Dir
 
Spd
km/h
Gust
km/h
Spd
kts
Gust
kts
13/11:30pm 6.1 0.6 6.1 100 0.0 W 24 33 13 18 1006.5 1004.4 3.4
13/11:00pm 6.4 1.0 6.4 100 0.0 WNW 24 33 13 18 1006.9 1004.7 3.4
13/10:30pm 6.7 1.8 6.7 100 0.0 WNW 22 35 12 19 1007.1 1004.9 3.4
13/10:00pm 6.6 0.1 6.6 100 0.0 W 30 41 16 22 1007.2 1005.1 3.4
13/09:30pm 7.0 0.2 7.0 100 0.0 WNW 32 54 17 29 1007.0 1004.8 3.4
13/09:07pm 7.3 1.0 7.3 100 0.0 WNW 30 54 16 29 1006.4 1004.3 3.4
13/09:00pm 7.5 0.8 7.5 100 0.0 WNW 32 44 17 24 1006.4 1004.3 3.4
13/08:45pm 7.6 0.4 7.6 100 0.0 WNW 35 57 19 31 1006.1 1003.9 3.4
13/08:30pm 7.6 0.8 7.6 100 0.0 WNW 33 50 18 27 1006.2 1004.0 3.4
13/08:00pm 8.3 1.3 8.3 100 0.0 WNW 35 56 19 30 1006.1 1003.9 3.4
13/07:59pm 8.2 1.1 8.2 100 0.0 WNW 35 56 19 30 1006.1 1003.9 3.4
13/07:30pm 8.5 2.1 8.5 100 0.0 WNW 32 43 17 23 1006.1 1003.9 3.4
13/07:00pm 9.0 2.5 9.0 100 0.0 WNW 33 52 18 28 1006.0 1003.8 3.4
13/06:51pm 9.1 3.2 9.1 100 0.0 WNW 30 52 16 28 1005.9 1003.7 3.2
13/06:30pm 10.2 5.4 10.2 100 0.0 WNW 26 41 14 22 1006.0 1003.8 3.2
13/06:00pm 11.0 6.0 11.0 100 0.0 WNW 28 46 15 25 1005.7 1003.6 2.4
13/05:30pm 11.3 7.9 11.1 99 0.1 NW 20 35 11 19 1005.9 1003.7 0.2
13/05:00pm 11.5 8.2 11.0 97 0.3 NW 19 30 10 16 1006.2 1004.0 0.0
13/04:30pm 11.8 7.8 10.4 91 0.8 NW 22 35 12 19 1006.4 1004.3 0.0
13/04:00pm 12.5 10.1 10.2 86 1.3 NNW 13 35 7 19 1006.6 1004.5 0.0
13/03:30pm 12.7 10.1 10.6 87 1.2 NW 15 33 8 18 1006.9 1004.7 0.0
13/03:00pm 12.1 8.5 10.0 87 1.1 WNW 19 30 10 16 1007.2 1005.1 0.0
13/02:30pm 13.1 8.2 10.1 82 1.6 WNW 26 41 14 22 1007.2 1005.1 0.0
13/02:00pm 13.4 9.7 10.2 81 1.8 NW 20 35 11 19 1007.3 1005.2 0.0
13/01:30pm 14.7 11.8 9.5 71 2.8 NW 15 33 8 18 1007.5 1005.4 0.0
13/01:00pm 14.0 10.1 9.6 75 2.4 NW 20 33 11 18 1007.6 1005.5 0.0
13/12:30pm 13.9 10.0 9.5 75 2.4 NW 20 35 11 19 1007.6 1005.5 0.0
13/12:00pm 13.5 9.7 9.2 75 2.3 NNW 19 35 10 19 1007.7 1005.6 0.0
13/11:30am 12.7 9.9 12.7 100 0.0 N 19 35 10 19 1007.9 1005.7 0.0
13/11:00am 11.1 7.9 11.1 100 0.0 NNW 19 32 10 17 1008.1 1006.0 0.0
13/10:30am 9.8 5.6 9.8 100 0.0 NNW 22 30 12 16 1008.0 1005.8 0.0
13/10:00am 9.7 4.7 9.7 100 0.0 NNW 26 39 14 21 1008.2 1006.1 0.0
13/09:30am 9.7 4.7 9.7 100 0.0 NNW 26 39 14 21 1008.2 1006.1 0.0
13/09:00am 9.8 4.5 9.8 100 0.0 NNW 28 41 15 22 1008.3 1006.2 0.0
13/08:30am 9.7 4.4 9.7 100 0.0 NNW 28 41 15 22 1008.3 1006.2 0.0
13/08:00am 9.6 3.8 9.6 100 0.0 NNW 30 44 16 24 1008.4 1006.3 0.0
13/07:30am 9.5 3.7 9.5 100 0.0 NNW 30 39 16 21 1008.3 1006.2 0.0
13/07:00am 9.4 3.2 9.4 100 0.0 NNW 32 46 17 25 1008.5 1006.4 0.0
13/06:30am 9.3 3.1 9.3 100 0.0 N 32 48 17 26 1008.1 1006.0 0.0
13/06:00am 9.1 2.6 9.1 100 0.0 N 33 43 18 23 1008.3 1006.2 0.0
13/05:30am 9.1 2.8 9.1 100 0.0 N 32 43 17 23 1008.1 1006.0 0.0
13/05:00am 9.1 3.6 9.1 100 0.0 N 28 37 15 20 1008.4 1006.3 0.0
13/04:30am 9.1 3.2 9.1 100 0.0 N 30 44 16 24 1008.5 1006.4 0.0
13/04:00am 9.1 3.6 9.1 100 0.0 N 28 35 15 19 1008.9 1006.8 0.0
13/03:30am 9.0 3.1 9.0 100 0.0 N 30 39 16 21 1009.2 1007.1 0.0
13/03:00am 8.8 2.5 8.8 100 0.0 N 32 44 17 24 1009.5 1007.4 0.0
13/02:30am 8.7 2.7 8.6 99 0.1 N 30 41 16 22 1009.6 1007.6 0.0
13/02:00am 8.4 1.9 8.3 99 0.1 N 32 43 17 23 1010.0 1007.9 0.0
13/01:30am 8.7 2.3 8.6 99 0.1 N 32 41 17 22 1010.4 1008.4 0.0
13/01:00am 8.9 2.6 8.8 99 0.1 N 32 46 17 25 1011.3 1009.3 0.0
13/12:30am 9.2 2.7 9.1 99 0.1 N 33 43 18 23 1011.1 1009.0 0.0
13/12:00am 9.1 2.6 9.0 99 0.1 N 33 44 18 24 1011.4 1009.4 0.0
 
Date/Time
EDT
Temp
°C
App
Temp
°C
Dew
Point
Rel
Hum
%
Delta-T
°C
Wind Press
QNH
hPa
Press
MSL
hPa
Rain
since 9 am
mm
Dir
 
Spd
km/h
Gust
km/h
Spd
kts
Gust
kts
12/11:30pm 9.3 2.5 9.2 99 0.1 N 35 48 19 26 1011.6 1009.6 0.0
12/11:00pm 9.6 3.2 9.5 99 0.1 N 33 43 18 23 1012.1 1010.1 0.0
12/10:30pm 9.9 2.8 9.4 97 0.3 N 37 44 20 24 1012.4 1010.4 0.0
12/10:00pm 10.3 3.9 9.5 95 0.4 N 33 43 18 23 1012.8 1010.8 0.0
12/09:30pm 10.5 4.0 8.9 90 0.8 N 33 44 18 24 1013.0 1011.0 0.0
12/09:00pm 11.1 4.0 8.0 81 1.6 N 35 44 19 24 1013.0 1011.0 0.0
12/08:30pm 11.7 4.5 7.8 77 2.0 N 35 46 19 25 1013.2 1011.2 0.0
12/08:00pm 12.4 5.8 7.9 74 2.3 N 32 43 17 23 1013.7 1011.7 0.0
12/07:30pm 12.8 6.0 7.0 68 3.0 N 32 43 17 23 1013.9 1011.9 0.0
12/07:00pm 13.9 7.4 6.7 62 3.7 N 30 37 16 20 1014.0 1012.0 0.0
12/06:30pm 14.8 8.4 7.1 60 4.0 N 30 41 16 22 1014.2 1012.2 0.0
12/06:00pm 15.2 8.2 7.0 58 4.3 N 33 43 18 23 1014.3 1012.4 0.0
12/05:30pm 16.4 10.5 7.3 55 4.8 N 28 37 15 20 1014.9 1012.9 0.0
12/05:00pm 16.6 10.7 7.5 55 4.8 N 28 37 15 20 1015.1 1013.2 0.0
12/04:30pm 17.6 11.6 7.1 50 5.6 N 28 37 15 20 1015.3 1013.4 0.0
12/04:00pm 17.4 11.1 7.5 52 5.3 N 30 44 16 24 1015.6 1013.6 0.0
12/03:30pm 18.8 13.4 8.2 50 5.8 NNE 26 37 14 20 1015.4 1013.5 0.0
12/03:00pm 18.9 13.3 8.6 51 5.7 N 28 41 15 22 1015.9 1014.0 0.0
12/02:31pm 18.8 13.2 8.7 52 5.6 N 28 48 15 26 1016.3 1014.4 0.0
12/02:30pm 19.1 13.9 9.0 52 5.6 N 26 48 14 26 1016.3 1014.4 0.0
12/02:00pm 17.9 12.3 8.7 55 5.0 N 28 41 15 22 1016.6 1014.6 0.0
12/01:30pm 17.8 11.8 8.6 55 5.0 N 30 41 16 22 1016.9 1015.0 0.0
12/01:00pm 17.4 11.6 9.3 59 4.5 NNE 30 43 16 23 1016.9 1015.0 0.0
12/12:30pm 15.8 9.9 9.2 65 3.6 NNE 30 41 16 22 1017.1 1015.2 0.0
12/12:00pm 16.1 12.0 10.2 68 3.3 N 22 35 12 19 1017.6 1015.7 0.0
12/11:30am 14.9 10.8 10.1 73 2.7 NNE 22 32 12 17 1018.0 1016.1 0.0
12/11:00am 13.9 9.0 9.9 77 2.2 NNE 26 37 14 20 1018.0 1016.1 0.0
12/10:30am 13.4 8.6 10.4 82 1.7 NNE 26 37 14 20 1018.1 1016.2 0.0
12/10:00am 12.8 7.5 10.0 83 1.5 NNE 28 37 15 20 1018.5 1016.6 0.0
12/09:30am 11.6 7.6 9.2 85 1.3 N 20 35 11 19 1018.8 1016.9 0.0
12/09:00am 11.7 7.1 9.6 87 1.1 NNE 24 30 13 16 1018.8 1016.9 0.0
12/08:30am 11.0 6.4 9.6 91 0.7 NNE 24 30 13 16 1018.7 1016.8 0.0
12/08:00am 10.0 5.7 9.2 95 0.4 NNE 22 30 12 16 1018.5 1016.6 0.0
12/07:30am 9.1 4.3 9.0 99 0.1 N 24 28 13 15 1018.1 1016.2 0.0
12/07:00am 8.7 3.4 8.6 99 0.1 NNE 26 33 14 18 1017.6 1015.7 0.0
12/06:30am 8.4 2.3 8.3 99 0.1 NNE 30 39 16 21 1017.2 1015.3 0.0
12/06:00am 8.4 2.3 8.3 99 0.1 NNE 30 41 16 22 1016.9 1015.0 0.0
12/05:30am 8.3 2.2 8.2 99 0.1 NNE 30 39 16 21 1016.9 1015.0 0.0
12/05:00am 8.2 2.1 8.1 99 0.1 NNE 30 35 16 19 1017.2 1015.3 0.0
12/04:30am 8.2 2.8 8.1 99 0.1 NNE 26 32 14 17 1017.4 1015.6 0.0
12/04:00am 8.3 2.1 8.0 98 0.2 NNE 30 39 16 21 1017.7 1015.8 0.0
12/03:30am 8.1 2.7 7.8 98 0.2 NNE 26 33 14 18 1017.7 1015.8 0.0
12/03:00am 7.8 3.5 7.7 99 0.1 NNE 20 24 11 13 1018.0 1016.1 0.0
12/02:30am 7.9 3.7 7.5 97 0.2 NNE 19 20 10 11 1018.2 1016.4 0.0
12/02:00am 8.3 4.2 8.0 98 0.2 NNE 19 22 10 12 1018.5 1016.6 0.0
12/01:30am 8.6 4.5 8.0 96 0.3 NNE 19 22 10 12 1018.7 1016.8 0.0
12/01:00am 9.0 5.7 8.1 94 0.5 NE 15 19 8 10 1018.7 1016.8 0.0
12/12:30am 8.5 4.7 7.6 94 0.5 E 17 19 9 10 1018.7 1016.8 0.0
12/12:00am 8.8 6.2 7.6 92 0.6 E 11 15 6 8 1019.0 1017.2 0.0
 
Date/Time
EDT
Temp
°C
App
Temp
°C
Dew
Point
Rel
Hum
%
Delta-T
°C
Wind Press
QNH
hPa
Press
MSL
hPa
Rain
since 9 am
mm
Dir
 
Spd
km/h
Gust
km/h
Spd
kts
Gust
kts
11/11:30pm 9.0 6.4 7.6 91 0.7 E 11 13 6 7 1019.0 1017.2 0.0
11/11:00pm 8.4 6.5 7.5 94 0.5 SE 7 13 4 7 1019.1 1017.3 0.0
11/10:30pm 7.8 5.3 6.6 92 0.6 S 9 11 5 6 1019.2 1017.4 0.0
11/10:00pm 7.0 3.0 4.8 86 1.0 S 15 17 8 9 1018.8 1016.9 0.0
11/09:30pm 6.8 2.5 5.3 90 0.7 SSW 17 20 9 11 1019.0 1017.2 0.0

Other Formats:

Comma delimited format used in spreadsheet applications
http://www.bom.gov.au/fwo/IDT60801/IDT60801.95952.axf

JavaScript Object Notation format (JSON) in row-major order
http://www.bom.gov.au/fwo/IDT60801/IDT60801.95952.json